Time;durP1;ratioP1;P1;durP2;ratioP2;P2;SDS_P1;SDS_P2;PMS_P1;PMS_P2;Temp;Humidity;BMP_temperature;BMP_pressure;BME280_temperature;BME280_humidity;BME280_pressure;Samples;Min_cycle;Max_cycle;Signal;HPM_P1;HPM_P2
2024/01/22 00:02:28;;;;;;;3.08;2.75;;;16.10;59.50;;;;;;4214123;27;20077;-41
2024/01/22 00:05:10;;;;;;;3.65;2.78;;;16.20;59.50;;;;;;4203807;28;20046;-41
2024/01/22 00:07:51;;;;;;;4.40;2.35;;;16.10;59.40;;;;;;4203373;28;20133;-41
2024/01/22 00:10:32;;;;;;;4.90;2.00;;;16.10;59.60;;;;;;4202818;28;20078;-51
2024/01/22 00:13:13;;;;;;;1.88;1.77;;;16.10;59.70;;;;;;4204042;28;20100;-41
2024/01/22 00:15:54;;;;;;;2.92;2.33;;;16.10;59.70;;;;;;4203594;28;20055;-41
2024/01/22 00:18:37;;;;;;;2.70;2.08;;;16.10;59.70;;;;;;4204781;28;20069;-41
2024/01/22 00:21:19;;;;;;;4.97;2.90;;;16.10;59.70;;;;;;4224432;27;20655;-40
2024/01/22 00:24:01;;;;;;;2.67;2.13;;;16.00;59.90;;;;;;4206511;28;20117;-41
2024/01/22 00:26:42;;;;;;;3.58;2.72;;;16.10;60.00;;;;;;4206801;28;20087;-40
2024/01/22 00:29:23;;;;;;;5.30;2.65;;;16.10;59.90;;;;;;4181508;28;20112;-41
2024/01/22 00:32:05;;;;;;;3.45;2.50;;;16.10;60.70;;;;;;4213754;27;20192;-41
2024/01/22 00:34:47;;;;;;;6.45;2.70;;;16.10;59.90;;;;;;4227078;27;20406;-41
2024/01/22 00:37:29;;;;;;;4.57;2.40;;;16.10;59.90;;;;;;4222329;27;20054;-41
2024/01/22 00:40:11;;;;;;;3.17;2.15;;;16.10;59.90;;;;;;4223687;27;20096;-40
2024/01/22 00:42:52;;;;;;;2.63;2.10;;;16.10;60.10;;;;;;4221966;27;20410;-47
2024/01/22 00:45:33;;;;;;;2.20;2.08;;;16.10;60.30;;;;;;4222945;27;20537;-46
2024/01/22 00:48:15;;;;;;;2.10;1.92;;;16.10;60.30;;;;;;4208605;28;20395;-46
2024/01/22 00:50:58;;;;;;;2.17;1.75;;;16.20;59.90;;;;;;4222611;27;20054;-47
2024/01/22 00:53:39;;;;;;;3.40;2.25;;;16.40;59.50;;;;;;4239833;27;20066;-47
2024/01/22 00:56:20;;;;;;;2.45;2.03;;;16.50;59.30;;;;;;4239409;27;20068;-47
2024/01/22 00:59:02;;;;;;;3.65;1.90;;;16.60;59.10;;;;;;4229663;27;20197;-46
2024/01/22 01:01:43;;;;;;;3.45;2.50;;;16.50;59.00;;;;;;4205179;27;20059;-39
2024/01/22 01:04:26;;;;;;;3.03;2.40;;;16.60;59.10;;;;;;4204408;28;20059;-40
2024/01/22 01:07:15;;;;;;;3.67;2.30;;;16.60;59.00;;;;;;4205402;28;20058;-40
2024/01/22 01:09:59;;;;;;;4.07;2.00;;;16.60;59.10;;;;;;4160571;28;20111;-40
2024/01/22 01:12:40;;;;;;;2.83;2.10;;;16.50;59.20;;;;;;4187386;28;20122;-40
2024/01/22 01:15:23;;;;;;;3.95;2.30;;;16.50;59.30;;;;;;4206104;28;20051;-40
2024/01/22 01:18:04;;;;;;;4.72;2.10;;;16.60;59.30;;;;;;4204728;28;20058;-40
2024/01/22 01:20:46;;;;;;;3.17;2.30;;;16.60;59.20;;;;;;4206346;28;20047;-40
2024/01/22 01:23:33;;;;;;;2.83;2.20;;;16.60;59.90;;;;;;4178323;28;20109;-40
2024/01/22 01:26:22;;;;;;;2.97;2.15;;;16.70;59.20;;;;;;4188990;28;20400;-40
2024/01/22 01:29:03;;;;;;;3.03;2.17;;;16.80;58.90;;;;;;4187834;27;20090;-40
2024/01/22 01:31:43;;;;;;;2.85;2.10;;;16.80;59.50;;;;;;4186935;28;20129;-40
2024/01/22 01:34:25;;;;;;;4.45;2.15;;;16.80;58.70;;;;;;4187429;28;20051;-41
2024/01/22 01:37:06;;;;;;;2.15;1.92;;;16.80;58.80;;;;;;4204634;27;20094;-41
2024/01/22 01:39:49;;;;;;;2.35;2.00;;;16.90;58.60;;;;;;4208969;27;20047;-41
2024/01/22 01:42:32;;;;;;;5.18;2.50;;;17.00;58.60;;;;;;4209222;27;20521;-40
2024/01/22 01:45:14;;;;;;;2.13;1.77;;;17.00;58.50;;;;;;4206484;28;20055;-41
2024/01/22 01:47:55;;;;;;;3.38;2.08;;;17.00;58.50;;;;;;4205434;28;20058;-41
2024/01/22 01:50:36;;;;;;;2.00;1.80;;;16.90;58.60;;;;;;4229731;27;20062;-41
2024/01/22 01:53:22;;;;;;;1.98;1.60;;;16.90;58.70;;;;;;4238830;27;20386;-41
2024/01/22 01:56:07;;;;;;;3.30;2.17;;;16.80;58.80;;;;;;4238328;27;20086;-41
2024/01/22 01:58:48;;;;;;;5.30;2.50;;;16.70;59.10;;;;;;4235302;27;20508;-41
2024/01/22 02:01:32;;;;;;;4.05;2.05;;;16.80;59.30;;;;;;4203262;28;20510;-40
2024/01/22 02:04:13;;;;;;;2.60;1.95;;;16.80;59.30;;;;;;4206844;27;20058;-47
2024/01/22 02:06:54;;;;;;;3.20;1.90;;;16.90;59.10;;;;;;4203525;28;20071;-46
2024/01/22 02:09:50;;;;;;;4.03;2.05;;;17.00;58.90;;;;;;4220115;27;20054;-46
2024/01/22 02:12:32;;;;;;;1.45;1.35;;;17.00;58.90;;;;;;4186074;28;20150;-47
2024/01/22 02:15:14;;;;;;;1.92;1.73;;;16.90;58.90;;;;;;4192803;28;20047;-46
2024/01/22 02:17:59;;;;;;;;;;;17.00;59.00;;;;;;4205992;28;20047;-46
2024/01/22 02:20:40;;;;;;;3.67;1.85;;;17.00;58.90;;;;;;4194449;28;19930;-46
2024/01/22 02:23:22;;;;;;;3.17;1.60;;;17.00;58.90;;;;;;4204664;28;20184;-48
2024/01/22 02:26:04;;;;;;;2.13;1.92;;;17.00;59.00;;;;;;4219494;27;20118;-47
2024/01/22 02:28:46;;;;;;;2.35;2.10;;;17.00;59.00;;;;;;4209083;27;20094;-48
2024/01/22 02:31:27;;;;;;;2.10;1.60;;;17.10;59.00;;;;;;4200767;28;20075;-44
2024/01/22 02:34:09;;;;;;;2.42;2.13;;;17.00;59.10;;;;;;4204250;28;20070;-47
2024/01/22 02:36:50;;;;;;;2.17;1.98;;;17.00;59.20;;;;;;4219617;27;20059;-46
2024/01/22 02:39:35;;;;;;;4.22;2.20;;;16.90;59.30;;;;;;4219471;27;20058;-46
2024/01/22 02:42:16;;;;;;;2.65;1.50;;;16.90;59.50;;;;;;4221290;27;20054;-47
2024/01/22 02:44:59;;;;;;;1.90;1.67;;;16.80;59.70;;;;;;4220301;27;20493;-47
2024/01/22 02:47:40;;;;;;;3.60;1.73;;;16.80;59.90;;;;;;4213912;27;20054;-46
2024/01/22 02:50:21;;;;;;;6.78;1.88;;;16.70;60.10;;;;;;4202146;28;20407;-47
2024/01/22 02:53:02;;;;;;;2.97;1.73;;;16.60;60.20;;;;;;4202065;28;20521;-47
2024/01/22 02:55:45;;;;;;;2.90;1.80;;;16.60;60.50;;;;;;4204952;27;20410;-47
2024/01/22 02:58:26;;;;;;;1.60;1.50;;;16.60;60.70;;;;;;4203452;28;20059;-48
2024/01/22 03:01:07;;;;;;;1.90;1.80;;;16.60;60.90;;;;;;4202887;28;20066;-48
2024/01/22 03:03:48;;;;;;;2.28;1.52;;;16.50;61.00;;;;;;4230171;27;20516;-48
2024/01/22 03:06:30;;;;;;;;;;;16.40;61.30;;;;;;4215983;27;20112;-47
2024/01/22 03:09:11;;;;;;;2.00;1.40;;;16.40;61.40;;;;;;4205004;28;20382;-47
2024/01/22 03:11:53;;;;;;;2.30;1.40;;;16.30;61.70;;;;;;4203222;28;20067;-47
2024/01/22 03:14:34;;;;;;;2.40;1.83;;;16.20;62.10;;;;;;4203853;28;20116;-61
2024/01/22 03:17:15;;;;;;;1.85;1.23;;;16.20;62.50;;;;;;4186666;28;20059;-62
2024/01/22 03:19:56;;;;;;;2.63;1.50;;;16.30;62.40;;;;;;4187845;28;20197;-62
2024/01/22 03:22:37;;;;;;;3.88;1.50;;;16.50;62.10;;;;;;4204177;28;20051;-62
2024/01/22 03:25:18;;;;;;;3.20;1.88;;;16.60;61.50;;;;;;4203880;28;20102;-62
2024/01/22 03:28:01;;;;;;;2.03;1.23;;;16.80;61.30;;;;;;4203929;28;20055;-62
2024/01/22 03:30:42;;;;;;;2.25;1.63;;;16.80;61.00;;;;;;4203977;28;20097;-61
2024/01/22 03:33:23;;;;;;;3.15;2.00;;;16.90;60.70;;;;;;4203996;28;20066;-61
2024/01/22 03:36:04;;;;;;;3.72;1.75;;;17.00;60.50;;;;;;4208819;27;20549;-62
2024/01/22 03:38:45;;;;;;;3.75;1.80;;;17.00;60.50;;;;;;4203688;28;20055;-62
2024/01/22 03:41:26;;;;;;;2.78;1.73;;;16.90;60.50;;;;;;4220692;27;20062;-62
2024/01/22 03:44:08;;;;;;;2.63;1.55;;;16.80;60.70;;;;;;4216284;27;20201;-62
2024/01/22 03:46:49;;;;;;;2.60;1.20;;;16.80;61.10;;;;;;4203717;28;20524;-62
2024/01/22 03:49:30;;;;;;;2.40;1.45;;;16.70;61.40;;;;;;4203536;28;20174;-61
2024/01/22 03:52:11;;;;;;;1.55;1.45;;;16.70;61.80;;;;;;4203502;28;20055;-61
2024/01/22 03:54:52;;;;;;;1.00;0.90;;;16.80;61.60;;;;;;4185769;28;20043;-61
2024/01/22 03:57:33;;;;;;;3.33;1.60;;;16.90;61.50;;;;;;4201841;28;20055;-62
2024/01/22 04:00:16;;;;;;;1.63;1.30;;;17.00;61.00;;;;;;4202454;28;20411;-62
2024/01/22 04:02:57;;;;;;;1.30;1.20;;;17.00;60.80;;;;;;4203866;28;20051;-62
2024/01/22 04:05:38;;;;;;;2.08;1.52;;;17.10;60.60;;;;;;4202983;28;20086;-62
2024/01/22 04:08:20;;;;;;;2.45;1.52;;;17.20;60.60;;;;;;4202004;28;20502;-63
2024/01/22 04:11:01;;;;;;;1.63;1.52;;;17.20;60.30;;;;;;4212272;27;20055;-62
2024/01/22 04:13:42;;;;;;;1.90;1.30;;;17.20;60.30;;;;;;4202336;28;20055;-63
2024/01/22 04:16:25;;;;;;;2.38;1.20;;;17.30;60.30;;;;;;4203470;28;20051;-62
2024/01/22 04:19:05;;;;;;;1.17;0.82;;;17.30;60.20;;;;;;4203011;28;20055;-63
2024/01/22 04:21:47;;;;;;;1.20;1.10;;;17.30;60.20;;;;;;4186769;28;20174;-63
2024/01/22 04:24:28;;;;;;;;;;;17.20;60.30;;;;;;4201754;28;20069;-62
2024/01/22 04:27:09;;;;;;;1.40;1.30;;;17.20;60.40;;;;;;4208123;27;19930;-63
2024/01/22 04:29:50;;;;;;;1.55;1.38;;;17.20;60.60;;;;;;4220350;27;20047;-63
2024/01/22 04:32:32;;;;;;;1.27;1.17;;;17.10;61.70;;;;;;4220588;27;20046;-64
2024/01/22 04:35:13;;;;;;;3.13;1.30;;;17.00;61.10;;;;;;4203325;28;20174;-63
2024/01/22 04:37:54;;;;;;;0.80;0.80;;;17.00;61.40;;;;;;4203690;28;20071;-62
2024/01/22 04:40:35;;;;;;;2.40;1.25;;;16.90;61.50;;;;;;4202433;28;20050;-63
2024/01/22 04:43:17;;;;;;;1.05;1.05;;;16.90;61.60;;;;;;4203521;27;20050;-63
2024/01/22 04:45:57;;;;;;;0.93;0.93;;;16.70;62.10;;;;;;4211122;27;20055;-64
2024/01/22 04:48:39;;;;;;;1.60;1.03;;;16.70;62.30;;;;;;4220082;27;20499;-64
2024/01/22 04:51:20;;;;;;;1.00;1.00;;;16.60;62.70;;;;;;4220072;27;20043;-63
2024/01/22 04:54:01;;;;;;;1.10;0.90;;;16.60;63.10;;;;;;4203463;27;20055;-62
2024/01/22 04:56:44;;;;;;;0.70;0.70;;;16.60;64.20;;;;;;4203415;27;20055;-62
2024/01/22 04:59:25;;;;;;;0.90;0.90;;;16.60;63.30;;;;;;4202941;27;20043;-63
2024/01/22 05:02:06;;;;;;;0.70;0.70;;;16.60;63.30;;;;;;4190573;27;20083;-62
2024/01/22 05:04:48;;;;;;;1.65;0.95;;;16.60;63.40;;;;;;4188180;28;20376;-61
2024/01/22 05:07:29;;;;;;;0.47;0.47;;;16.70;63.40;;;;;;4189891;28;20177;-62
2024/01/22 05:10:11;;;;;;;2.40;1.08;;;16.80;63.10;;;;;;4206946;27;20059;-62
2024/01/22 05:12:51;;;;;;;2.30;0.98;;;16.90;63.90;;;;;;4207057;27;20092;-62
2024/01/22 05:15:33;;;;;;;0.93;0.90;;;16.90;62.80;;;;;;4206792;28;20453;-62
2024/01/22 05:18:15;;;;;;;0.82;0.82;;;17.00;62.60;;;;;;4206646;28;20106;-62
2024/01/22 05:20:57;;;;;;;0.52;0.52;;;17.10;62.20;;;;;;4206192;28;20050;-61
2024/01/22 05:23:39;;;;;;;1.88;1.05;;;17.20;61.90;;;;;;4206638;27;20054;-62
2024/01/22 05:26:19;;;;;;;0.80;0.80;;;17.20;61.90;;;;;;4206588;27;20104;-62
2024/01/22 05:29:00;;;;;;;1.27;0.80;;;17.30;61.80;;;;;;4222987;27;20050;-62
2024/01/22 05:31:41;;;;;;;0.60;0.60;;;17.40;61.60;;;;;;4206196;27;20075;-63
2024/01/22 05:34:22;;;;;;;2.08;1.00;;;17.40;61.30;;;;;;4192279;27;20055;-63
2024/01/22 05:37:05;;;;;;;0.95;0.75;;;17.50;61.20;;;;;;4204624;28;20077;-62
2024/01/22 05:39:46;;;;;;;0.80;0.80;;;17.50;61.20;;;;;;4206282;28;20051;-62
2024/01/22 05:42:27;;;;;;;0.85;0.80;;;17.50;61.30;;;;;;4206077;28;20055;-60
2024/01/22 05:45:09;;;;;;;0.80;0.80;;;17.50;61.30;;;;;;4207638;27;20058;-62
2024/01/22 05:47:50;;;;;;;1.15;1.10;;;17.50;61.40;;;;;;4222922;27;20054;-50
2024/01/22 05:50:31;;;;;;;1.23;0.90;;;17.40;61.60;;;;;;4222791;27;20178;-49
2024/01/22 05:53:13;;;;;;;1.40;0.80;;;17.30;61.90;;;;;;4222811;27;20062;-50
2024/01/22 05:55:54;;;;;;;0.70;0.70;;;17.20;62.20;;;;;;4222611;27;20054;-48
2024/01/22 05:58:35;;;;;;;0.98;0.70;;;17.10;62.60;;;;;;4221787;27;20062;-51
2024/01/22 06:01:20;;;;;;;0.50;0.50;;;17.10;62.90;;;;;;4215735;27;20043;-49
2024/01/22 06:04:02;;;;;;;1.95;0.60;;;17.10;63.10;;;;;;4205241;27;20082;-49
2024/01/22 06:06:43;;;;;;;1.88;0.63;;;17.10;63.00;;;;;;4203916;28;20067;-49
2024/01/22 06:09:26;;;;;;;;;;;17.10;63.00;;;;;;4206250;28;20168;-49
2024/01/22 06:12:08;;;;;;;0.80;0.80;;;17.10;63.10;;;;;;4205817;28;19927;-49
2024/01/22 06:14:50;;;;;;;0.93;0.47;;;17.00;63.20;;;;;;4205747;28;20137;-53
2024/01/22 06:17:32;;;;;;;1.23;0.60;;;17.00;63.60;;;;;;4209055;27;20177;-53
2024/01/22 06:20:13;;;;;;;2.05;0.70;;;16.80;63.80;;;;;;4211643;27;20074;-52
2024/01/22 06:22:54;;;;;;;2.75;0.70;;;16.80;64.10;;;;;;4205727;28;20105;-49
2024/01/22 06:25:36;;;;;;;2.75;0.80;;;16.90;64.10;;;;;;4188844;28;20055;-62
2024/01/22 06:28:17;;;;;;;2.35;0.60;;;17.00;63.90;;;;;;4188674;27;20060;-62
2024/01/22 06:30:59;;;;;;;0.85;0.73;;;17.10;63.70;;;;;;4190214;27;20059;-62
2024/01/22 06:33:40;;;;;;;1.92;0.95;;;17.20;63.40;;;;;;4203042;27;20580;-62
2024/01/22 06:36:21;;;;;;;1.70;0.77;;;17.30;63.40;;;;;;4205006;27;20059;-62
2024/01/22 06:39:02;;;;;;;0.80;0.60;;;17.30;63.20;;;;;;4188790;28;20580;-61
2024/01/22 06:41:45;;;;;;;2.20;0.77;;;17.30;63.40;;;;;;4191888;27;20378;-61
2024/01/22 06:44:26;;;;;;;2.60;0.50;;;17.30;63.40;;;;;;4221834;27;20063;-63
2024/01/22 06:47:07;;;;;;;1.10;0.75;;;17.30;63.30;;;;;;4221666;27;20107;-62
2024/01/22 06:49:49;;;;;;;0.70;0.57;;;17.40;63.10;;;;;;4210675;28;20074;-62
2024/01/22 06:52:30;;;;;;;1.35;0.80;;;17.40;63.10;;;;;;4204955;28;20513;-63
2024/01/22 06:55:11;;;;;;;2.60;0.55;;;17.50;63.10;;;;;;4198694;27;20051;-61
2024/01/22 06:57:53;;;;;;;1.02;0.68;;;17.40;63.10;;;;;;4202051;27;20548;-61
2024/01/22 07:00:36;;;;;;;3.40;0.70;;;17.40;63.60;;;;;;4187980;28;20126;-61
2024/01/22 07:03:17;;;;;;;4.00;1.15;;;17.40;63.80;;;;;;4213731;27;20046;-61
2024/01/22 07:05:58;;;;;;;1.98;1.00;;;17.40;64.00;;;;;;4205027;28;20043;-62
2024/01/22 07:08:39;;;;;;;1.15;0.60;;;17.40;63.90;;;;;;4211763;27;20521;-61
2024/01/22 07:11:21;;;;;;;2.00;0.90;;;17.40;63.70;;;;;;4204168;28;20067;-63
2024/01/22 07:14:04;;;;;;;3.10;0.95;;;17.50;63.70;;;;;;4204496;28;20460;-61
2024/01/22 07:16:44;;;;;;;3.13;0.90;;;17.50;63.60;;;;;;4233528;27;20453;-63
2024/01/22 07:19:26;;;;;;;2.47;0.98;;;17.50;63.70;;;;;;4219007;27;20440;-61
2024/01/22 07:22:07;;;;;;;2.83;1.10;;;17.50;63.70;;;;;;4207587;27;20062;-60
2024/01/22 07:24:48;;;;;;;5.25;1.38;;;17.40;64.50;;;;;;4221484;27;20042;-61
2024/01/22 07:27:29;;;;;;;6.25;1.50;;;17.30;65.00;;;;;;4221233;27;20046;-60
2024/01/22 07:30:12;;;;;;;4.82;1.48;;;17.30;65.00;;;;;;4208999;28;20388;-62
2024/01/22 07:32:53;;;;;;;6.68;1.52;;;17.30;65.00;;;;;;4202994;28;20051;-62
2024/01/22 07:35:36;;;;;;;5.00;1.50;;;17.30;64.80;;;;;;4218125;27;20061;-62
2024/01/22 07:38:17;;;;;;;12.88;2.17;;;17.30;64.70;;;;;;4222046;27;20050;-62
2024/01/22 07:40:58;;;;;;;6.07;1.40;;;17.30;64.70;;;;;;4237648;27;20363;-62
2024/01/22 07:43:39;;;;;;;7.03;1.85;;;17.20;64.90;;;;;;4234424;27;20183;-62
2024/01/22 07:46:22;;;;;;;10.20;2.95;;;17.20;65.10;;;;;;4215425;27;20177;-62
2024/01/22 07:49:03;;;;;;;5.68;1.65;;;17.20;65.20;;;;;;4207146;27;20059;-50
2024/01/22 07:51:44;;;;;;;8.32;1.90;;;17.20;65.00;;;;;;4204320;27;20056;-48
2024/01/22 07:54:25;;;;;;;10.50;2.25;;;17.20;64.80;;;;;;4219878;27;20050;-48
2024/01/22 07:57:10;;;;;;;5.88;1.52;;;17.20;65.00;;;;;;4210382;27;20055;-50
2024/01/22 07:59:51;;;;;;;13.07;2.25;;;17.20;65.10;;;;;;4213353;27;20054;-50
2024/01/22 08:02:34;;;;;;;11.20;2.40;;;17.20;65.00;;;;;;4219792;27;20050;-62
2024/01/22 08:05:14;;;;;;;6.72;2.50;;;17.20;65.10;;;;;;4214265;27;20120;-62
2024/01/22 08:07:56;;;;;;;14.07;2.60;;;17.10;65.20;;;;;;4206449;27;20046;-61
2024/01/22 08:10:37;;;;;;;9.95;2.38;;;17.10;65.30;;;;;;4219673;27;20470;-62
2024/01/22 08:13:18;;;;;;;8.02;2.47;;;17.10;65.70;;;;;;4218101;27;20434;-62
2024/01/22 08:15:59;;;;;;;8.00;1.70;;;17.10;65.60;;;;;;4205654;27;20050;-62
2024/01/22 08:18:42;;;;;;;8.93;2.67;;;17.10;65.60;;;;;;4213109;27;20382;-61
2024/01/22 08:21:23;;;;;;;8.05;2.20;;;17.10;65.80;;;;;;4220435;27;20058;-53
2024/01/22 08:24:04;;;;;;;5.53;2.10;;;17.10;65.90;;;;;;4219560;27;20442;-50
2024/01/22 08:26:45;;;;;;;10.68;3.13;;;17.00;66.20;;;;;;4217636;27;20054;-52
2024/01/22 08:29:26;;;;;;;7.88;2.95;;;17.00;66.50;;;;;;4194808;28;20186;-49
2024/01/22 08:32:07;;;;;;;5.32;2.05;;;17.00;66.70;;;;;;4214213;27;20066;-54
2024/01/22 08:34:51;;;;;;;6.68;1.92;;;17.00;66.80;;;;;;4212157;27;20562;-49
2024/01/22 08:37:33;;;;;;;13.63;3.10;;;17.00;66.90;;;;;;4234531;27;20095;-52
2024/01/22 08:40:17;;;;;;;8.93;2.55;;;17.10;66.90;;;;;;4205080;27;20497;-49
2024/01/22 08:42:58;;;;;;;5.13;1.67;;;17.10;66.90;;;;;;4223012;27;20513;-48
2024/01/22 08:45:39;;;;;;;10.20;2.70;;;17.10;67.00;;;;;;4223423;27;20062;-49
2024/01/22 08:48:20;;;;;;;7.85;2.75;;;17.00;67.10;;;;;;4221078;27;20496;-51
2024/01/22 08:51:03;;;;;;;5.75;1.98;;;17.10;67.30;;;;;;4200393;27;20047;-47
2024/01/22 08:53:44;;;;;;;11.73;2.00;;;17.10;67.00;;;;;;4190058;28;20055;-51
2024/01/22 08:56:25;;;;;;;7.88;1.88;;;17.10;66.90;;;;;;4196639;27;20063;-50
2024/01/22 08:59:06;;;;;;;5.88;1.95;;;17.10;67.00;;;;;;4217694;27;20054;-51
2024/01/22 09:01:47;;;;;;;10.27;2.40;;;17.10;67.30;;;;;;4215317;27;20063;-48
2024/01/22 09:04:28;;;;;;;11.18;3.20;;;17.10;67.60;;;;;;4216931;27;20514;-49
2024/01/22 09:07:10;;;;;;;15.13;2.92;;;17.10;67.60;;;;;;4205241;28;20502;-51
2024/01/22 09:09:52;;;;;;;15.65;3.50;;;17.10;67.60;;;;;;4216227;27;20100;-48
2024/01/22 09:12:33;;;;;;;13.32;3.38;;;17.10;67.60;;;;;;4223061;27;20058;-51
2024/01/22 09:15:17;;;;;;;15.15;3.70;;;17.00;67.60;;;;;;4211939;28;20826;-52
2024/01/22 09:17:59;;;;;;;16.52;3.60;;;16.90;67.70;;;;;;4210682;28;20487;-59
2024/01/22 09:20:40;;;;;;;17.23;4.80;;;16.90;68.00;;;;;;4206387;28;20547;-59
2024/01/22 09:23:22;;;;;;;17.70;4.53;;;16.80;68.10;;;;;;4214528;28;20050;-60
2024/01/22 09:26:03;;;;;;;17.85;4.43;;;16.70;68.30;;;;;;4222789;27;20062;-60
2024/01/22 09:28:44;;;;;;;16.00;5.00;;;16.70;68.70;;;;;;4223292;27;20058;-60
2024/01/22 09:31:25;;;;;;;26.17;5.30;;;16.60;68.60;;;;;;4223000;27;20185;-62
2024/01/22 09:34:06;;;;;;;21.88;4.85;;;16.70;69.00;;;;;;4223353;27;20417;-60
2024/01/22 09:36:47;;;;;;;25.30;6.18;;;16.70;69.20;;;;;;4191080;27;20116;-60
2024/01/22 09:39:30;;;;;;;20.73;5.25;;;16.80;70.40;;;;;;4204910;28;20583;-60
2024/01/22 09:42:12;;;;;;;22.58;4.60;;;16.80;70.80;;;;;;4204547;27;20062;-60
2024/01/22 09:44:56;;;;;;;32.42;6.05;;;16.70;70.70;;;;;;4206184;28;20120;-60
2024/01/22 09:47:38;;;;;;;20.15;4.53;;;16.80;71.00;;;;;;4206101;28;20454;-60
2024/01/22 09:50:19;;;;;;;22.75;4.72;;;16.80;71.20;;;;;;4220928;27;20080;-61
2024/01/22 09:53:09;;;;;;;23.05;4.35;;;16.70;71.50;;;;;;4219279;27;20059;-59
2024/01/22 09:55:52;;;;;;;17.65;3.55;;;16.80;71.50;;;;;;4222082;27;20139;-59
2024/01/22 09:58:43;;;;;;;12.65;2.72;;;16.90;71.40;;;;;;4221972;27;20121;-59
2024/01/22 10:01:25;;;;;;;21.85;4.95;;;16.80;70.60;;;;;;4220765;27;20058;-59
2024/01/22 10:04:06;;;;;;;;;;;16.80;70.50;;;;;;4214476;27;20055;-61
2024/01/22 10:06:48;;;;;;;21.77;3.30;;;16.80;70.70;;;;;;4205472;28;19931;-61
2024/01/22 10:09:30;;;;;;;24.55;5.18;;;16.80;70.50;;;;;;4209450;27;20367;-61
2024/01/22 10:12:12;;;;;;;19.17;3.83;;;16.80;70.20;;;;;;4206194;27;20141;-58
2024/01/22 10:14:53;;;;;;;22.05;4.50;;;16.80;70.20;;;;;;4205619;28;20051;-59
2024/01/22 10:17:34;;;;;;;17.35;4.85;;;16.70;70.40;;;;;;4205484;28;20058;-59
2024/01/22 10:20:16;;;;;;;6.78;1.95;;;16.70;70.60;;;;;;4214135;27;20075;-61
2024/01/22 10:23:01;;;;;;;18.08;3.90;;;16.70;70.30;;;;;;4210494;27;20481;-59
2024/01/22 10:25:43;;;;;;;24.83;4.90;;;16.80;70.30;;;;;;4208849;27;20515;-60
2024/01/22 10:28:25;;;;;;;14.55;3.67;;;16.80;70.00;;;;;;4204937;28;20483;-50
2024/01/22 10:31:10;;;;;;;23.13;4.95;;;16.80;70.10;;;;;;4188535;28;20101;-50
2024/01/22 10:34:04;;;;;;;13.35;3.22;;;16.80;70.60;;;;;;4188559;28;20048;-48
2024/01/22 10:36:45;;;;;;;17.23;4.45;;;16.80;70.20;;;;;;4186803;28;20040;-51
2024/01/22 10:39:27;;;;;;;12.85;3.08;;;16.80;69.50;;;;;;4187633;28;20117;-49
2024/01/22 10:42:12;;;;;;;16.48;3.38;;;16.70;69.30;;;;;;4186045;28;20063;-47
2024/01/22 10:44:56;;;;;;;21.50;3.58;;;16.80;69.30;;;;;;4216210;27;20128;-48
2024/01/22 10:47:39;;;;;;;18.48;3.30;;;16.80;69.10;;;;;;4203277;28;20407;-60
2024/01/22 10:50:21;;;;;;;18.48;3.65;;;16.80;69.10;;;;;;4186975;28;20491;-59
2024/01/22 10:53:03;;;;;;;16.23;3.22;;;16.70;68.70;;;;;;4188522;28;20055;-59
2024/01/22 10:55:57;;;;;;;10.80;2.70;;;16.70;69.10;;;;;;4188613;27;20121;-48
2024/01/22 10:58:42;;;;;;;25.13;4.10;;;16.70;69.10;;;;;;4203460;27;20132;-59
2024/01/22 11:01:25;;;;;;;16.77;3.55;;;16.70;69.40;;;;;;4204134;28;20051;-59
2024/01/22 11:04:10;;;;;;;15.60;2.97;;;16.60;69.30;;;;;;4205464;28;20057;-59
2024/01/22 11:06:54;;;;;;;10.10;3.05;;;16.50;69.50;;;;;;4221221;27;20177;-59
2024/01/22 11:09:36;;;;;;;11.43;3.08;;;16.50;69.50;;;;;;4221032;27;20058;-59
2024/01/22 11:12:22;;;;;;;10.18;2.67;;;16.50;69.40;;;;;;4220927;27;20123;-60
2024/01/22 11:15:04;;;;;;;17.95;3.45;;;16.50;69.50;;;;;;4212524;27;20132;-59
2024/01/22 11:17:47;;;;;;;16.05;3.55;;;16.40;69.30;;;;;;4209894;27;20121;-59
2024/01/22 11:20:28;;;;;;;20.20;3.53;;;16.50;69.70;;;;;;4188432;27;20162;-59
2024/01/22 11:23:09;;;;;;;15.68;3.08;;;16.40;69.40;;;;;;4187230;28;20063;-59
2024/01/22 11:26:07;;;;;;;16.50;4.47;;;16.40;69.50;;;;;;4192963;27;20051;-59
2024/01/22 11:29:06;;;;;;;19.27;3.88;;;16.40;69.80;;;;;;4201894;27;20097;-59
2024/01/22 11:31:48;;;;;;;15.40;3.25;;;16.30;70.30;;;;;;4215358;27;20051;-59
2024/01/22 11:34:46;;;;;;;22.15;4.60;;;16.30;70.20;;;;;;4203766;28;20513;-59
2024/01/22 11:37:36;;;;;;;16.90;4.15;;;16.30;69.90;;;;;;4200994;27;20486;-59
2024/01/22 11:40:36;;;;;;;26.23;3.90;;;16.20;69.90;;;;;;4204110;28;20056;-48
2024/01/22 11:43:18;;;;;;;15.43;3.58;;;16.20;71.00;;;;;;4202151;28;20055;-50
2024/01/22 11:46:00;;;;;;;;;;;16.10;71.80;;;;;;4194133;27;20059;-52
2024/01/22 11:48:42;;;;;;;23.05;4.03;;;16.10;72.10;;;;;;4186548;28;19927;-59
2024/01/22 11:51:28;;;;;;;16.27;3.65;;;16.10;73.00;;;;;;4186936;28;20169;-48
2024/01/22 11:54:17;;;;;;;12.65;2.05;;;16.10;73.20;;;;;;4182786;28;20059;-48
2024/01/22 11:56:58;;;;;;;16.77;2.78;;;16.00;73.60;;;;;;4195454;28;20051;-49
2024/01/22 11:59:39;;;;;;;11.70;2.40;;;16.00;73.90;;;;;;4205745;27;20086;-60
2024/01/22 12:02:21;;;;;;;15.73;3.40;;;16.00;74.00;;;;;;4217309;27;20047;-58
2024/01/22 12:05:04;;;;;;;18.98;3.65;;;16.00;74.20;;;;;;4217691;27;20055;-61
2024/01/22 12:07:48;;;;;;;20.08;3.63;;;16.00;74.40;;;;;;4210197;27;20103;-48
2024/01/22 12:10:30;;;;;;;8.50;2.88;;;15.90;74.00;;;;;;4218266;27;20100;-49
2024/01/22 12:13:13;;;;;;;17.75;3.42;;;15.90;73.70;;;;;;4211201;27;20148;-53
2024/01/22 12:15:56;;;;;;;14.07;3.88;;;15.90;73.60;;;;;;4202985;27;20054;-49
2024/01/22 12:18:50;;;;;;;10.32;3.00;;;15.90;73.30;;;;;;4201534;28;20058;-50
2024/01/22 12:21:32;;;;;;;12.85;3.13;;;15.90;73.10;;;;;;4215023;27;20104;-49
2024/01/22 12:24:15;;;;;;;15.55;3.53;;;15.90;72.80;;;;;;4201327;27;20054;-49
2024/01/22 12:26:57;;;;;;;15.35;4.05;;;15.90;72.70;;;;;;4192631;27;20113;-50
2024/01/22 12:29:40;;;;;;;10.88;2.78;;;15.80;72.50;;;;;;4184392;28;20517;-49
2024/01/22 12:32:21;;;;;;;15.15;2.70;;;15.80;72.20;;;;;;4219734;27;20051;-50
2024/01/22 12:35:02;;;;;;;12.10;3.30;;;15.80;72.40;;;;;;4201982;27;20197;-62
2024/01/22 12:37:44;;;;;;;14.63;3.90;;;15.80;72.70;;;;;;4188841;27;20101;-62
2024/01/22 12:40:26;;;;;;;13.77;3.28;;;15.80;72.80;;;;;;4202758;28;20051;-62
2024/01/22 12:43:08;;;;;;;9.75;2.38;;;15.80;73.40;;;;;;4201255;27;20062;-62
2024/01/22 12:45:49;;;;;;;13.38;2.75;;;15.80;73.40;;;;;;4201542;28;20423;-63
2024/01/22 12:48:30;;;;;;;14.27;3.33;;;15.80;73.80;;;;;;4217377;27;20462;-61
2024/01/22 12:51:12;;;;;;;14.07;4.15;;;15.80;74.00;;;;;;4201632;28;20192;-61
2024/01/22 12:53:53;;;;;;;16.42;3.10;;;15.80;74.20;;;;;;4209197;27;20051;-61
2024/01/22 12:56:35;;;;;;;11.70;2.53;;;15.80;74.30;;;;;;4217969;27;20055;-51
2024/01/22 12:59:16;;;;;;;6.97;1.48;;;15.80;74.30;;;;;;4219467;27;20065;-50
2024/01/22 13:01:58;;;;;;;11.18;2.80;;;15.70;74.70;;;;;;4219962;27;20070;-50
2024/01/22 13:04:39;;;;;;;12.95;2.88;;;15.80;74.30;;;;;;4220003;27;20398;-48
2024/01/22 13:07:20;;;;;;;9.77;2.72;;;15.70;74.30;;;;;;4212881;27;20124;-49
2024/01/22 13:10:02;;;;;;;10.27;2.42;;;15.70;74.20;;;;;;4219727;27;20203;-48
2024/01/22 13:12:44;;;;;;;10.25;2.47;;;15.70;74.00;;;;;;4219532;27;20410;-53
2024/01/22 13:15:25;;;;;;;11.30;2.55;;;15.60;74.00;;;;;;4206055;28;20591;-51
2024/01/22 13:18:06;;;;;;;14.02;3.08;;;15.60;73.90;;;;;;4202844;28;20136;-61
2024/01/22 13:20:47;;;;;;;5.78;1.88;;;15.60;74.00;;;;;;4203273;28;20121;-49
2024/01/22 13:23:28;;;;;;;;;;;15.60;74.80;;;;;;4205057;27;20182;-48
2024/01/22 13:26:09;;;;;;;9.55;2.33;;;15.60;73.90;;;;;;4206678;27;19927;-50
2024/01/22 13:28:52;;;;;;;14.75;3.10;;;15.60;74.00;;;;;;4206073;28;20080;-50
2024/01/22 13:31:33;;;;;;;6.57;2.03;;;15.60;73.90;;;;;;4205254;28;20051;-50
2024/01/22 13:34:14;;;;;;;9.32;2.10;;;15.60;73.50;;;;;;4189066;28;20186;-48
2024/01/22 13:36:55;;;;;;;8.80;1.60;;;15.60;73.70;;;;;;4190438;27;20056;-62
2024/01/22 13:39:37;;;;;;;13.20;3.60;;;15.60;73.70;;;;;;4187782;28;20133;-62
2024/01/22 13:42:21;;;;;;;20.15;3.88;;;15.60;73.70;;;;;;4204281;28;20059;-50
2024/01/22 13:45:04;;;;;;;21.30;3.28;;;15.50;73.60;;;;;;4189088;28;20083;-48
2024/01/22 13:47:46;;;;;;;14.02;3.20;;;15.50;73.60;;;;;;4217060;27;20051;-46
2024/01/22 13:50:27;;;;;;;12.52;2.95;;;15.60;73.50;;;;;;4188850;28;20051;-60
2024/01/22 13:53:10;;;;;;;29.85;3.80;;;15.60;73.60;;;;;;4203915;27;20051;-60
2024/01/22 13:55:51;;;;;;;12.25;3.28;;;15.50;73.80;;;;;;4205342;28;20105;-60
2024/01/22 13:58:32;;;;;;;13.43;2.97;;;15.50;74.00;;;;;;4205180;28;20120;-63
2024/01/22 14:01:15;;;;;;;;;;;15.50;74.00;;;;;;4204689;28;20108;-61
2024/01/22 14:03:56;;;;;;;13.85;2.25;;;15.50;73.80;;;;;;4204782;28;19927;-61